KHVE/HVE METAR and TAF weather

Enter ICAO airport designator
Station Type Date Time Source
KHVE METAR 2019/02/22 22:55 UTC NOAA

KHVE 222255Z AUTO 26004KT 10SM OVC100 02/M06 A2980 RMK AO2


Station Type Date Time Source
KHVE Decoded METAR 2019/02/22 22:55 UTC NOAA

Station name not available
Feb 22, 2019 - 05:55 PM EST / 2019.02.22 2255 UTC
Wind: from the W (260 degrees) at 5 MPH (4 KT):0
Visibility: 10 mile(s):0
Sky conditions: overcast
Temperature: 35 F (2 C)
Windchill: 30 F (-1 C):1
Dew Point: 21 F (-6 C)
Relative Humidity: 55%
Pressure (altimeter): 29.8 in. Hg (1009 hPa)
ob: KHVE 222255Z AUTO 26004KT 10SM OVC100 02/M06 A2980 RMK AO2
cycle: 23

Station Type Date Time Source
KHVE TAF UTC NOAA

Error!


Example: see airport list